createdAt,value
2019-03-23T00:00:40.444Z,9.60
2019-03-23T00:03:08.402Z,9.20
2019-03-23T00:05:36.547Z,10.50
2019-03-23T00:08:10.097Z,9.10
2019-03-23T00:10:38.077Z,9.10
2019-03-23T00:13:06.069Z,9.10
2019-03-23T00:15:34.125Z,9.00
2019-03-23T00:18:02.211Z,8.90
2019-03-23T00:20:30.197Z,8.90
2019-03-23T00:22:58.225Z,8.90
2019-03-23T00:25:26.237Z,8.80
2019-03-23T00:27:54.270Z,8.80
2019-03-23T00:30:22.318Z,7.20
2019-03-23T00:32:50.346Z,8.70
2019-03-23T00:35:18.361Z,8.40
2019-03-23T00:37:47.696Z,8.30
2019-03-23T00:40:15.860Z,8.30
2019-03-23T00:42:43.827Z,8.20
2019-03-23T00:45:11.888Z,8.30
2019-03-23T00:47:40.007Z,8.10
2019-03-23T00:50:08.047Z,8.20
2019-03-23T00:52:38.032Z,8.70
2019-03-23T00:55:06.115Z,8.10
2019-03-23T00:57:34.095Z,8.20
2019-03-23T01:00:02.154Z,8.20
2019-03-23T01:02:30.467Z,8.20
2019-03-23T01:04:58.453Z,8.20
2019-03-23T01:07:26.489Z,8.20
2019-03-23T01:09:54.518Z,8.20
2019-03-23T01:12:22.487Z,8.20
2019-03-23T01:14:50.484Z,8.20
2019-03-23T01:17:18.470Z,8.10
2019-03-23T01:19:46.478Z,8.10
2019-03-23T01:22:14.557Z,7.90
2019-03-23T01:24:42.620Z,8.30
2019-03-23T01:27:10.622Z,8.00
2019-03-23T01:29:38.645Z,7.80
2019-03-23T01:32:06.641Z,7.80
2019-03-23T01:34:34.679Z,7.80
2019-03-23T01:37:03.171Z,7.50
2019-03-23T01:39:30.934Z,7.50
2019-03-23T01:41:58.959Z,7.50
2019-03-23T01:44:26.957Z,7.40
2019-03-23T01:46:54.953Z,7.50
2019-03-23T01:49:22.973Z,7.50
2019-03-23T01:51:50.994Z,7.40
2019-03-23T01:54:18.993Z,7.40
2019-03-23T01:56:46.993Z,7.30
2019-03-23T01:59:15.009Z,7.30
2019-03-23T02:01:43.039Z,7.10
2019-03-23T02:04:11.037Z,7.10
2019-03-23T02:06:39.083Z,7.10
2019-03-23T02:09:07.077Z,7.20
2019-03-23T02:11:35.116Z,7.30
2019-03-23T02:14:03.154Z,7.20
2019-03-23T02:16:31.146Z,7.10
2019-03-23T02:18:59.136Z,7.00
2019-03-23T02:21:27.149Z,7.10
2019-03-23T02:23:55.159Z,7.10
2019-03-23T02:26:23.145Z,7.10
2019-03-23T02:28:51.162Z,6.90
2019-03-23T02:31:19.157Z,6.80
2019-03-23T02:33:47.156Z,6.80
2019-03-23T02:36:15.186Z,6.70
2019-03-23T02:38:43.201Z,6.60
2019-03-23T02:41:12.410Z,6.70
2019-03-23T02:43:40.468Z,6.70
2019-03-23T02:46:08.466Z,6.80
2019-03-23T02:48:36.464Z,6.80
2019-03-23T02:51:04.486Z,7.10
2019-03-23T02:53:32.499Z,7.80
2019-03-23T02:56:00.495Z,7.00
2019-03-23T02:58:28.518Z,6.80
2019-03-23T03:00:56.539Z,6.70
2019-03-23T03:03:24.549Z,6.70
2019-03-23T03:05:52.559Z,6.70
2019-03-23T03:08:20.554Z,6.70
2019-03-23T03:10:48.562Z,7.40
2019-03-23T03:13:16.582Z,6.50
2019-03-23T03:15:44.622Z,6.60
2019-03-23T03:18:12.569Z,6.50
2019-03-23T03:20:40.629Z,6.40
2019-03-23T03:23:08.615Z,3.70
2019-03-23T03:25:36.986Z,6.30
2019-03-23T03:28:05.255Z,6.10
2019-03-23T03:30:33.231Z,6.40
2019-03-23T03:33:01.272Z,6.10
2019-03-23T03:35:29.297Z,6.20
2019-03-23T03:37:57.526Z,6.00
2019-03-23T03:40:25.298Z,6.00
2019-03-23T03:42:53.509Z,6.00
2019-03-23T03:45:23.621Z,6.00
2019-03-23T03:47:51.624Z,6.00
2019-03-23T03:50:19.643Z,6.10
2019-03-23T03:52:47.650Z,6.10
2019-03-23T03:55:15.649Z,6.10
2019-03-23T03:57:43.680Z,6.10
2019-03-23T04:00:11.667Z,6.00
2019-03-23T04:02:39.666Z,6.10
2019-03-23T04:05:07.676Z,6.00
2019-03-23T04:07:35.664Z,6.00
2019-03-23T04:10:03.849Z,6.00
2019-03-23T04:12:31.874Z,6.10
2019-03-23T04:14:59.855Z,6.40
2019-03-23T04:17:27.839Z,5.90
2019-03-23T04:19:55.858Z,4.40
2019-03-23T04:22:23.854Z,6.00
2019-03-23T04:24:51.841Z,5.90
2019-03-23T04:27:19.853Z,5.90
2019-03-23T04:29:47.865Z,5.80
2019-03-23T04:32:15.874Z,5.80
2019-03-23T04:34:43.898Z,5.90
2019-03-23T04:37:11.886Z,5.80
2019-03-23T04:39:39.843Z,5.70
2019-03-23T04:42:07.865Z,5.60
2019-03-23T04:44:36.515Z,5.60
2019-03-23T04:47:04.568Z,5.60
2019-03-23T04:49:32.593Z,5.60
2019-03-23T04:52:00.624Z,5.50
2019-03-23T04:54:28.606Z,5.50
2019-03-23T04:56:56.628Z,5.50
2019-03-23T04:59:24.613Z,5.40
2019-03-23T05:01:52.609Z,5.40
2019-03-23T05:04:20.656Z,5.40
2019-03-23T05:06:48.628Z,5.40
2019-03-23T05:09:16.635Z,5.30
2019-03-23T05:11:44.653Z,5.20
2019-03-23T05:14:12.744Z,5.40
2019-03-23T05:16:40.758Z,5.30
2019-03-23T05:19:08.771Z,5.40
2019-03-23T05:21:36.753Z,5.40
2019-03-23T05:24:04.741Z,5.30
2019-03-23T05:26:32.807Z,5.40
2019-03-23T05:29:00.832Z,5.20
2019-03-23T05:31:28.804Z,5.30
2019-03-23T05:33:56.805Z,5.20
2019-03-23T05:36:24.780Z,5.20
2019-03-23T05:38:52.765Z,5.20
2019-03-23T05:41:20.772Z,5.20
2019-03-23T05:43:48.749Z,5.20
2019-03-23T05:46:17.258Z,5.20
2019-03-23T05:48:45.261Z,5.20
2019-03-23T05:51:13.252Z,5.30
2019-03-23T05:53:41.263Z,5.20
2019-03-23T05:56:09.276Z,5.10
2019-03-23T05:58:37.249Z,5.10
2019-03-23T06:01:05.262Z,5.10
2019-03-23T06:03:33.297Z,5.10
2019-03-23T06:06:01.296Z,5.30
2019-03-23T06:08:29.290Z,5.30
2019-03-23T06:10:57.293Z,5.30
2019-03-23T06:13:25.311Z,5.20
2019-03-23T06:15:53.301Z,5.30
2019-03-23T06:18:21.294Z,5.40
2019-03-23T06:20:49.287Z,5.30
2019-03-23T06:23:17.285Z,5.50
2019-03-23T06:25:45.297Z,5.60
2019-03-23T06:28:13.281Z,5.60
2019-03-23T06:30:41.298Z,5.60
2019-03-23T06:33:09.323Z,5.70
2019-03-23T06:35:37.317Z,5.70
2019-03-23T06:38:05.300Z,5.70
2019-03-23T06:40:33.304Z,5.80
2019-03-23T06:43:01.297Z,5.90
2019-03-23T06:45:29.304Z,6.00
2019-03-23T06:47:57.721Z,6.20
2019-03-23T06:50:25.729Z,6.20
2019-03-23T06:52:53.827Z,6.40
2019-03-23T06:55:21.865Z,6.50
2019-03-23T06:57:49.833Z,6.70
2019-03-23T07:00:17.816Z,6.90
2019-03-23T07:02:45.813Z,7.20
2019-03-23T07:05:13.826Z,7.50
2019-03-23T07:07:41.814Z,7.60
2019-03-23T07:10:10.128Z,7.80
2019-03-23T07:12:38.128Z,5.90
2019-03-23T07:15:07.040Z,8.20
2019-03-23T07:17:35.065Z,8.40
2019-03-23T07:20:03.513Z,8.60
2019-03-23T07:22:31.521Z,6.40
2019-03-23T07:24:59.599Z,8.80
2019-03-23T07:27:27.593Z,9.10
2019-03-23T07:29:55.602Z,9.40
2019-03-23T07:32:23.606Z,9.50
2019-03-23T07:34:51.600Z,9.70
2019-03-23T07:37:19.609Z,10.00
2019-03-23T07:39:47.643Z,10.10
2019-03-23T07:42:15.643Z,10.40
2019-03-23T07:44:43.674Z,10.60
2019-03-23T07:47:11.685Z,9.70
2019-03-23T07:49:40.890Z,11.00
2019-03-23T07:52:08.869Z,11.10
2019-03-23T07:54:36.873Z,11.30
2019-03-23T07:57:04.858Z,11.50
2019-03-23T07:59:32.847Z,11.60
2019-03-23T08:02:00.867Z,11.80
2019-03-23T08:04:28.860Z,12.00
2019-03-23T08:06:56.860Z,12.10
2019-03-23T08:09:24.869Z,12.30
2019-03-23T08:11:52.854Z,12.60
2019-03-23T08:14:20.848Z,12.80
2019-03-23T08:16:48.870Z,12.80
2019-03-23T08:19:16.908Z,13.10
2019-03-23T08:21:44.910Z,13.30
2019-03-23T08:24:12.901Z,13.30
2019-03-23T08:26:40.937Z,13.40
2019-03-23T08:29:08.907Z,13.50
2019-03-23T08:31:36.912Z,13.70
2019-03-23T08:34:04.864Z,13.90
2019-03-23T08:36:32.896Z,14.10
2019-03-23T08:39:00.927Z,14.20
2019-03-23T08:41:28.896Z,14.30
2019-03-23T08:43:56.868Z,14.40
2019-03-23T08:46:24.884Z,14.70
2019-03-23T08:48:52.904Z,14.90
2019-03-23T08:51:21.165Z,14.90
2019-03-23T08:53:49.158Z,15.10
2019-03-23T08:56:17.142Z,15.30
2019-03-23T08:58:43.333Z,15.40
2019-03-23T09:01:11.333Z,15.60
2019-03-23T09:03:39.318Z,15.80
2019-03-23T09:06:07.294Z,16.40
2019-03-23T09:08:35.296Z,16.70
2019-03-23T09:11:03.281Z,17.20
2019-03-23T09:13:40.226Z,17.60
2019-03-23T09:15:59.291Z,18.10
2019-03-23T09:18:27.253Z,19.00
2019-03-23T09:20:55.240Z,19.90
2019-03-23T09:23:23.244Z,20.60
2019-03-23T09:25:51.224Z,21.20
2019-03-23T09:28:19.196Z,21.70
2019-03-23T09:30:47.204Z,21.70
2019-03-23T09:33:15.176Z,22.50
2019-03-23T09:35:43.150Z,23.30
2019-03-23T09:38:11.141Z,23.90
2019-03-23T09:40:39.151Z,23.90
2019-03-23T09:43:07.160Z,24.70
2019-03-23T09:45:35.181Z,24.70
2019-03-23T09:48:03.160Z,24.50
2019-03-23T09:50:31.135Z,24.00
2019-03-23T09:52:59.366Z,25.20
2019-03-23T09:55:28.672Z,25.90
2019-03-23T09:57:55.341Z,26.40
2019-03-23T10:00:23.431Z,26.30
2019-03-23T10:02:51.316Z,26.80
2019-03-23T10:05:19.286Z,27.30
2019-03-23T10:07:47.285Z,27.30
2019-03-23T10:10:21.730Z,27.20
2019-03-23T10:12:43.270Z,27.00
2019-03-23T10:15:11.278Z,26.60
2019-03-23T10:17:39.247Z,26.50
2019-03-23T10:20:07.233Z,26.20
2019-03-23T10:22:35.248Z,26.50
2019-03-23T10:25:03.284Z,26.40
2019-03-23T10:27:31.267Z,26.30
2019-03-23T10:29:59.310Z,25.80
2019-03-23T10:32:27.321Z,25.20
2019-03-23T10:34:55.325Z,25.10
2019-03-23T10:37:23.340Z,25.40
2019-03-23T10:39:51.313Z,23.90
2019-03-23T10:42:19.297Z,25.10
2019-03-23T10:44:47.302Z,25.50
2019-03-23T10:47:15.281Z,24.90
2019-03-23T10:49:43.271Z,24.90
2019-03-23T10:52:11.289Z,25.10
2019-03-23T10:54:39.523Z,24.90
2019-03-23T10:57:07.516Z,25.00
2019-03-23T10:59:35.529Z,25.30
2019-03-23T11:02:03.516Z,25.40
2019-03-23T11:04:31.491Z,25.00
2019-03-23T11:06:59.497Z,25.60
2019-03-23T11:09:27.474Z,25.40
2019-03-23T11:11:55.451Z,25.60
2019-03-23T11:14:23.492Z,26.10
2019-03-23T11:16:51.477Z,26.00
2019-03-23T11:19:19.449Z,26.10
2019-03-23T11:21:47.464Z,26.20
2019-03-23T11:24:15.456Z,26.30
2019-03-23T11:26:43.500Z,26.40
2019-03-23T11:29:11.522Z,23.70
2019-03-23T11:31:39.498Z,26.30
2019-03-23T11:34:17.247Z,26.20
2019-03-23T11:36:35.509Z,26.20
2019-03-23T11:39:04.532Z,26.20
2019-03-23T11:41:32.493Z,25.80
2019-03-23T11:44:00.521Z,26.20
2019-03-23T11:46:28.509Z,26.20
2019-03-23T11:48:56.511Z,25.80
2019-03-23T11:51:24.536Z,25.70
2019-03-23T11:53:52.516Z,25.20
2019-03-23T11:56:22.028Z,26.00
2019-03-23T11:58:50.016Z,26.10
2019-03-23T12:01:17.988Z,25.80
2019-03-23T12:03:45.985Z,26.10
2019-03-23T12:06:14.070Z,26.10
2019-03-23T12:08:42.012Z,25.80
2019-03-23T12:11:10.000Z,25.10
2019-03-23T12:13:38.014Z,25.20
2019-03-23T12:16:05.976Z,25.20
2019-03-23T12:18:33.940Z,25.60
2019-03-23T12:21:01.974Z,25.70
2019-03-23T12:23:29.953Z,25.20
2019-03-23T12:25:57.935Z,25.20
2019-03-23T12:28:25.956Z,25.40
2019-03-23T12:30:53.940Z,25.50
2019-03-23T12:33:21.921Z,24.10
2019-03-23T12:35:49.888Z,25.00
2019-03-23T12:38:17.858Z,25.00
2019-03-23T12:40:45.867Z,25.20
2019-03-23T12:43:13.880Z,26.20
2019-03-23T12:45:41.872Z,25.10
2019-03-23T12:48:09.853Z,24.90
2019-03-23T12:50:37.846Z,25.00
2019-03-23T12:53:05.820Z,24.90
2019-03-23T12:55:33.827Z,24.80
2019-03-23T12:58:02.115Z,24.70
2019-03-23T13:00:30.104Z,24.50
2019-03-23T13:02:58.100Z,24.40
2019-03-23T13:05:26.095Z,23.00
2019-03-23T13:07:54.075Z,24.40
2019-03-23T13:10:22.052Z,24.50
2019-03-23T13:12:50.046Z,24.40
2019-03-23T13:15:18.036Z,24.20
2019-03-23T13:17:46.051Z,24.20
2019-03-23T13:20:14.082Z,24.30
2019-03-23T13:22:42.036Z,24.10
2019-03-23T13:25:10.013Z,24.10
2019-03-23T13:27:38.014Z,23.90
2019-03-23T13:30:06.992Z,23.50
2019-03-23T13:32:34.964Z,23.50
2019-03-23T13:35:03.159Z,23.50
2019-03-23T13:37:31.171Z,23.50
2019-03-23T13:39:59.143Z,23.60
2019-03-23T13:42:27.150Z,23.40
2019-03-23T13:44:55.141Z,23.30
2019-03-23T13:47:23.158Z,23.40
2019-03-23T13:49:51.220Z,23.30
2019-03-23T13:52:19.189Z,22.90
2019-03-23T13:54:47.165Z,22.90
2019-03-23T13:57:15.164Z,22.80
2019-03-23T13:59:43.349Z,22.60
2019-03-23T14:02:11.348Z,22.50
2019-03-23T14:04:39.394Z,22.60
2019-03-23T14:07:07.318Z,22.60
2019-03-23T14:09:35.279Z,22.60
2019-03-23T14:12:03.264Z,22.60
2019-03-23T14:14:31.243Z,22.50
2019-03-23T14:16:59.244Z,22.40
2019-03-23T14:19:27.252Z,22.40
2019-03-23T14:21:55.242Z,21.50
2019-03-23T14:24:23.237Z,22.20
2019-03-23T14:26:51.355Z,22.10
2019-03-23T14:29:19.336Z,22.10
2019-03-23T14:31:47.325Z,21.80
2019-03-23T14:34:15.329Z,21.80
2019-03-23T14:36:43.316Z,21.80
2019-03-23T14:39:11.412Z,21.70
2019-03-23T14:41:39.395Z,21.80
2019-03-23T14:44:07.424Z,21.70
2019-03-23T14:46:35.428Z,21.70
2019-03-23T14:49:03.452Z,21.60
2019-03-23T14:51:31.456Z,21.40
2019-03-23T14:53:59.452Z,21.40
2019-03-23T14:56:31.582Z,21.40
2019-03-23T14:58:55.471Z,21.40
2019-03-23T15:01:24.655Z,21.20
2019-03-23T15:03:52.659Z,21.10
2019-03-23T15:06:20.664Z,21.10
2019-03-23T15:08:48.660Z,20.00
2019-03-23T15:11:16.655Z,20.90
2019-03-23T15:13:44.649Z,21.00
2019-03-23T15:16:12.676Z,20.90
2019-03-23T15:18:40.689Z,20.90
2019-03-23T15:21:08.705Z,20.80
2019-03-23T15:23:36.716Z,20.80
2019-03-23T15:26:04.776Z,20.70
2019-03-23T15:28:32.896Z,20.50
2019-03-23T15:31:00.900Z,20.50
2019-03-23T15:33:28.920Z,20.60
2019-03-23T15:35:56.887Z,20.50
2019-03-23T15:38:24.875Z,20.40
2019-03-23T15:40:52.877Z,20.30
2019-03-23T15:43:20.889Z,20.30
2019-03-23T15:45:48.886Z,20.40
2019-03-23T15:48:16.881Z,20.40
2019-03-23T15:50:44.885Z,20.30
2019-03-23T15:53:12.894Z,20.20
2019-03-23T15:55:40.900Z,20.20
2019-03-23T15:58:08.884Z,20.20
2019-03-23T16:00:36.888Z,20.20
2019-03-23T16:03:06.187Z,20.00
2019-03-23T16:05:34.183Z,20.00
2019-03-23T16:08:02.218Z,20.00
2019-03-23T16:10:30.263Z,19.90
2019-03-23T16:12:58.285Z,17.60
2019-03-23T16:15:26.270Z,19.70
2019-03-23T16:17:54.278Z,19.70
2019-03-23T16:20:22.297Z,19.70
2019-03-23T16:22:50.271Z,19.60
2019-03-23T16:25:18.262Z,19.50
2019-03-23T16:27:46.232Z,19.40
2019-03-23T16:30:15.069Z,19.40
2019-03-23T16:32:43.067Z,19.40
2019-03-23T16:35:11.053Z,19.30
2019-03-23T16:37:39.049Z,19.30
2019-03-23T16:40:07.766Z,19.20
2019-03-23T16:42:44.663Z,19.20
2019-03-23T16:45:05.384Z,19.10
2019-03-23T16:47:33.408Z,19.10
2019-03-23T16:50:01.391Z,19.00
2019-03-23T16:52:29.353Z,17.50
2019-03-23T16:54:57.351Z,18.90
2019-03-23T16:57:25.335Z,18.80
2019-03-23T16:59:53.317Z,18.80
2019-03-23T17:02:21.300Z,18.70
2019-03-23T17:04:50.552Z,18.70
2019-03-23T17:07:18.527Z,18.60
2019-03-23T17:09:46.513Z,18.50
2019-03-23T17:12:14.508Z,18.50
2019-03-23T17:14:42.506Z,18.40
2019-03-23T17:17:10.529Z,18.30
2019-03-23T17:19:38.528Z,18.30
2019-03-23T17:22:06.531Z,18.30
2019-03-23T17:24:34.516Z,18.20
2019-03-23T17:27:02.517Z,18.10
2019-03-23T17:29:30.518Z,18.00
2019-03-23T17:31:58.529Z,18.00
2019-03-23T17:34:26.523Z,17.80
2019-03-23T17:36:54.519Z,17.60
2019-03-23T17:39:22.583Z,17.60
2019-03-23T17:41:50.717Z,17.50
2019-03-23T17:44:18.730Z,17.20
2019-03-23T17:46:46.745Z,17.00
2019-03-23T17:49:14.735Z,16.90
2019-03-23T17:51:42.753Z,16.90
2019-03-23T17:54:10.773Z,16.90
2019-03-23T17:56:38.793Z,16.80
2019-03-23T17:59:06.779Z,16.60
2019-03-23T18:01:34.821Z,16.60
2019-03-23T18:04:02.864Z,16.60
2019-03-23T18:06:31.296Z,16.50
2019-03-23T18:08:59.291Z,16.50
2019-03-23T18:11:27.348Z,16.50
2019-03-23T18:13:55.360Z,16.30
2019-03-23T18:16:23.381Z,16.20
2019-03-23T18:18:51.388Z,16.10
2019-03-23T18:21:19.379Z,15.80
2019-03-23T18:23:47.375Z,15.70
2019-03-23T18:26:15.416Z,15.70
2019-03-23T18:28:43.404Z,14.60
2019-03-23T18:31:11.445Z,15.30
2019-03-23T18:33:39.443Z,15.20
2019-03-23T18:36:07.454Z,14.30
2019-03-23T18:38:35.471Z,15.10
2019-03-23T18:41:03.569Z,15.00
2019-03-23T18:43:31.553Z,15.00
2019-03-23T18:45:59.638Z,15.10
2019-03-23T18:48:27.654Z,15.20
2019-03-23T18:50:55.784Z,15.10
2019-03-23T18:53:24.141Z,15.10
2019-03-23T18:55:51.768Z,15.00
2019-03-23T18:58:19.764Z,14.80
2019-03-23T19:00:49.064Z,14.80
2019-03-23T19:03:17.061Z,14.80
2019-03-23T19:05:45.075Z,14.60
2019-03-23T19:08:13.427Z,14.70
2019-03-23T19:10:41.401Z,14.60
2019-03-23T19:13:09.390Z,14.60
2019-03-23T19:15:37.383Z,14.50
2019-03-23T19:18:05.506Z,14.50
2019-03-23T19:20:33.497Z,14.50
2019-03-23T19:23:01.486Z,14.60
2019-03-23T19:25:29.478Z,14.60
2019-03-23T19:27:57.648Z,14.50
2019-03-23T19:30:25.660Z,14.60
2019-03-23T19:32:53.648Z,14.70
2019-03-23T19:35:21.637Z,14.60
2019-03-23T19:37:49.634Z,14.50
2019-03-23T19:40:17.664Z,14.50
2019-03-23T19:42:45.659Z,14.40
2019-03-23T19:45:13.667Z,14.40
2019-03-23T19:47:41.651Z,14.30
2019-03-23T19:50:09.637Z,14.20
2019-03-23T19:52:37.614Z,14.20
2019-03-23T19:55:05.929Z,14.00
2019-03-23T19:57:34.045Z,13.90
2019-03-23T20:00:02.144Z,13.70
2019-03-23T20:02:30.228Z,13.80
2019-03-23T20:04:58.356Z,13.60
2019-03-23T20:07:33.172Z,13.50
2019-03-23T20:09:56.240Z,12.90
2019-03-23T20:12:24.428Z,13.50
2019-03-23T20:14:52.582Z,12.30
2019-03-23T20:17:20.770Z,13.30
2019-03-23T20:19:48.882Z,13.20
2019-03-23T20:22:17.100Z,13.10
2019-03-23T20:24:45.276Z,13.10
2019-03-23T20:27:13.356Z,13.00
2019-03-23T20:29:41.434Z,12.90
2019-03-23T20:32:09.482Z,11.20
2019-03-23T20:34:38.706Z,12.60
2019-03-23T20:37:08.285Z,12.50
2019-03-23T20:39:34.972Z,12.50
2019-03-23T20:42:03.074Z,12.30
2019-03-23T20:44:31.100Z,11.00
2019-03-23T20:46:59.189Z,12.80
2019-03-23T20:49:27.221Z,12.50
2019-03-23T20:51:55.311Z,12.50
2019-03-23T20:54:23.451Z,12.40
2019-03-23T20:56:51.538Z,10.90
2019-03-23T20:59:19.717Z,10.50
2019-03-23T21:01:48.506Z,11.60
2019-03-23T21:04:16.697Z,10.80
2019-03-23T21:06:44.766Z,12.00
2019-03-23T21:09:12.802Z,12.00
2019-03-23T21:11:41.085Z,11.90
2019-03-23T21:14:19.642Z,11.80
2019-03-23T21:16:37.253Z,12.10
2019-03-23T21:19:05.452Z,11.70
2019-03-23T21:21:33.557Z,11.70
2019-03-23T21:24:01.718Z,10.70
2019-03-23T21:26:29.901Z,11.70
2019-03-23T21:28:58.133Z,11.70
2019-03-23T21:31:26.236Z,10.70
2019-03-23T21:33:54.364Z,9.20
2019-03-23T21:36:22.561Z,11.50
2019-03-23T21:38:50.648Z,11.40
2019-03-23T21:41:18.778Z,11.40
2019-03-23T21:43:47.153Z,11.40
2019-03-23T21:46:15.273Z,10.40
2019-03-23T21:48:43.470Z,10.00
2019-03-23T21:51:11.667Z,11.20
2019-03-23T21:53:39.834Z,11.20
2019-03-23T21:56:07.970Z,11.10
2019-03-23T21:58:36.114Z,11.00
2019-03-23T22:01:04.161Z,11.00
2019-03-23T22:03:32.248Z,11.20
2019-03-23T22:06:00.412Z,8.60
2019-03-23T22:08:28.570Z,11.70
2019-03-23T22:10:56.712Z,11.60
2019-03-23T22:13:25.083Z,8.80
2019-03-23T22:15:53.150Z,10.80
2019-03-23T22:18:21.233Z,11.10
2019-03-23T22:20:49.353Z,12.30
2019-03-23T22:23:17.575Z,10.00
2019-03-23T22:25:45.765Z,10.60
2019-03-23T22:28:13.924Z,9.70
2019-03-23T22:30:42.000Z,9.90
2019-03-23T22:33:10.031Z,11.10
2019-03-23T22:35:38.122Z,10.60
2019-03-23T22:38:06.160Z,10.70
2019-03-23T22:40:34.425Z,10.40
2019-03-23T22:43:02.598Z,10.40
2019-03-23T22:45:30.698Z,10.30
2019-03-23T22:47:58.839Z,11.60
2019-03-23T22:50:26.902Z,11.30
2019-03-23T22:52:54.992Z,10.10
2019-03-23T22:55:23.000Z,10.10
2019-03-23T22:57:51.001Z,10.60
2019-03-23T23:00:22.176Z,10.20
2019-03-23T23:02:50.749Z,10.10
2019-03-23T23:05:19.126Z,10.10
2019-03-23T23:07:47.357Z,10.10
2019-03-23T23:10:15.841Z,10.00
2019-03-23T23:12:44.245Z,10.00
2019-03-23T23:15:12.678Z,9.90
2019-03-23T23:17:40.773Z,9.90
2019-03-23T23:20:08.826Z,10.80
2019-03-23T23:22:36.877Z,11.20
2019-03-23T23:25:05.331Z,8.80
2019-03-23T23:27:33.516Z,9.50
2019-03-23T23:30:01.662Z,9.80
2019-03-23T23:32:29.778Z,11.20
2019-03-23T23:34:57.987Z,9.30
2019-03-23T23:37:26.064Z,11.10
2019-03-23T23:39:54.261Z,10.30
2019-03-23T23:42:22.377Z,9.40
2019-03-23T23:44:50.477Z,7.90
2019-03-23T23:47:18.676Z,8.00
2019-03-23T23:49:46.746Z,7.60
2019-03-23T23:52:14.795Z,9.30
2019-03-23T23:54:42.852Z,9.30
2019-03-23T23:57:10.968Z,9.30
2019-03-23T23:59:38.983Z,9.10
